Time;durP1;ratioP1;P1;durP2;ratioP2;P2;SDS_P1;SDS_P2;PMS_P1;PMS_P2;Temp;Humidity;BMP_temperature;BMP_pressure;BME280_temperature;BME280_humidity;BME280_pressure;Samples;Min_cycle;Max_cycle;Signal;HPM_P1;HPM_P2
2021/12/10 00:00:40;;;;;;;76.97;37.30;;;3.30;97.30;;;;;;4935833;29;20032;-62
2021/12/10 00:03:11;;;;;;;84.28;38.05;;;3.30;97.30;;;;;;4935904;29;20028;-62
2021/12/10 00:05:43;;;;;;;78.47;38.25;;;3.30;97.30;;;;;;4935140;29;20084;-62
2021/12/10 00:08:10;;;;;;;80.50;37.17;;;3.30;97.40;;;;;;4936337;29;20107;-62
2021/12/10 00:10:40;;;;;;;79.40;38.25;;;3.30;97.40;;;;;;4934061;29;20079;-62
2021/12/10 00:13:07;;;;;;;90.40;42.28;;;3.20;97.40;;;;;;4936056;29;20059;-62
2021/12/10 00:15:36;;;;;;;80.38;36.95;;;3.20;97.50;;;;;;4935319;29;20074;-62
2021/12/10 00:18:05;;;;;;;86.55;40.28;;;3.30;97.50;;;;;;4949660;29;20044;-62
2021/12/10 00:20:32;;;;;;;86.35;37.90;;;3.20;97.50;;;;;;4934615;29;20031;-62
2021/12/10 00:23:04;;;;;;;81.78;38.40;;;3.20;97.50;;;;;;4935707;29;20028;-62
2021/12/10 00:25:36;;;;;;;82.90;40.15;;;3.10;97.60;;;;;;4934059;29;20110;-62
2021/12/10 00:28:19;;;;;;;85.80;39.17;;;3.20;97.60;;;;;;4935365;29;20159;-61
2021/12/10 00:31:19;;;;;;;79.13;37.60;;;3.20;97.60;;;;;;4933724;29;20415;-62
2021/12/10 00:33:47;;;;;;;76.00;35.60;;;3.20;97.60;;;;;;4935236;29;20042;-62
2021/12/10 00:36:13;;;;;;;80.38;37.78;;;3.20;97.60;;;;;;4934116;29;20031;-61
2021/12/10 00:38:40;;;;;;;84.22;37.08;;;3.20;97.60;;;;;;4935501;29;20035;-62
2021/12/10 00:41:07;;;;;;;83.57;38.90;;;3.20;97.70;;;;;;4935309;29;20467;-62
2021/12/10 00:43:33;;;;;;;79.38;40.17;;;3.20;97.70;;;;;;4934527;29;20036;-62
2021/12/10 00:45:59;;;;;;;84.25;38.28;;;3.20;97.70;;;;;;4934776;29;20027;-62
2021/12/10 00:48:24;;;;;;;90.13;39.63;;;3.20;97.60;;;;;;4934272;29;20034;-61
2021/12/10 00:50:53;;;;;;;83.28;37.28;;;3.20;97.60;;;;;;4934875;29;20028;-62
2021/12/10 00:53:18;;;;;;;87.97;38.78;;;3.20;97.70;;;;;;4934280;29;20087;-62
2021/12/10 00:55:45;;;;;;;79.32;36.05;;;3.20;97.70;;;;;;4934259;29;20059;-62
2021/12/10 00:58:11;;;;;;;79.70;35.83;;;3.20;97.70;;;;;;4934813;29;20510;-62
2021/12/10 01:00:43;;;;;;;83.97;38.75;;;3.30;97.70;;;;;;4934297;29;20126;-61
2021/12/10 01:03:11;;;;;;;78.63;35.28;;;3.20;97.70;;;;;;4934360;29;20031;-61
2021/12/10 01:05:39;;;;;;;79.65;36.38;;;3.20;97.70;;;;;;4933553;29;20075;-61
2021/12/10 01:08:05;;;;;;;74.20;36.55;;;3.30;97.80;;;;;;4934879;29;20039;-60
2021/12/10 01:10:38;;;;;;;78.88;39.15;;;3.30;97.80;;;;;;4934190;29;20039;-60
2021/12/10 01:13:07;;;;;;;76.28;36.03;;;3.30;97.80;;;;;;4934636;29;20159;-60
2021/12/10 01:15:45;;;;;;;82.75;36.50;;;3.30;97.80;;;;;;4934068;29;20040;-61
2021/12/10 01:24:08;;;;;;;81.38;37.60;;;3.30;97.70;;;;;;4934719;29;20043;-61
2021/12/10 01:26:53;;;;;;;83.25;38.88;;;3.30;97.80;;;;;;4933290;29;20064;-60
2021/12/10 01:29:24;;;;;;;85.00;38.65;;;3.30;97.70;;;;;;4934613;29;20042;-60
2021/12/10 01:31:51;;;;;;;79.95;38.38;;;3.30;97.70;;;;;;4931282;28;20030;-60
2021/12/10 01:34:17;;;;;;;85.82;37.50;;;3.30;97.70;;;;;;4934161;28;20435;-61
2021/12/10 01:36:43;;;;;;;77.57;38.38;;;3.30;97.80;;;;;;4932632;29;20127;-61
2021/12/10 01:39:13;;;;;;;84.15;35.33;;;3.30;97.80;;;;;;4933857;29;20356;-61
2021/12/10 01:41:41;;;;;;;75.53;34.38;;;3.40;97.80;;;;;;4945115;29;20063;-61
2021/12/10 01:44:26;;;;;;;75.38;35.83;;;3.40;97.80;;;;;;4934234;29;20063;-61
2021/12/10 01:46:52;;;;;;;80.65;35.67;;;3.40;97.80;;;;;;4936944;29;20226;-61
2021/12/10 01:49:18;;;;;;;83.40;38.13;;;3.40;97.70;;;;;;4934201;29;20114;-60
2021/12/10 01:51:44;;;;;;;83.50;38.22;;;3.40;97.70;;;;;;4933208;29;20047;-61
2021/12/10 01:54:17;;;;;;;83.07;39.78;;;3.40;97.80;;;;;;4932852;29;20511;-61
2021/12/10 01:56:43;;;;;;;80.15;35.25;;;3.40;97.80;;;;;;4933702;29;20602;-61
2021/12/10 01:59:12;;;;;;;81.10;37.38;;;3.40;97.80;;;;;;4934014;29;20093;-61
2021/12/10 02:01:42;;;;;;;86.65;37.10;;;3.40;97.70;;;;;;4933722;29;20108;-61
2021/12/10 02:04:11;;;;;;;80.28;38.53;;;3.40;97.70;;;;;;4933463;29;20110;-62
2021/12/10 02:06:38;;;;;;;83.70;37.80;;;3.40;97.70;;;;;;4933329;29;20043;-61
2021/12/10 02:09:04;;;;;;;85.72;39.65;;;3.40;97.70;;;;;;4933202;29;20035;-61
2021/12/10 02:11:30;;;;;;;85.95;39.88;;;3.40;97.70;;;;;;4931835;29;20035;-61
2021/12/10 02:13:56;;;;;;;81.63;38.58;;;3.40;97.70;;;;;;4934033;29;20027;-61
2021/12/10 02:16:22;;;;;;;82.78;38.67;;;3.40;97.70;;;;;;4933044;29;20032;-61
2021/12/10 02:18:49;;;;;;;85.80;37.10;;;3.40;97.70;;;;;;4933753;29;20024;-61
2021/12/10 02:21:18;;;;;;;82.55;39.47;;;3.40;97.70;;;;;;4933124;29;20383;-61
2021/12/10 02:23:54;;;;;;;76.20;36.78;;;3.40;97.70;;;;;;4934447;29;20090;-61
2021/12/10 02:26:20;;;;;;;76.70;35.40;;;3.40;97.60;;;;;;4933245;29;20424;-61
2021/12/10 02:28:55;;;;;;;76.05;35.70;;;3.40;97.60;;;;;;4933685;29;20043;-61
2021/12/10 02:31:21;;;;;;;79.50;35.35;;;3.40;97.60;;;;;;4933146;29;20038;-61
2021/12/10 02:33:46;;;;;;;87.20;35.85;;;3.40;97.60;;;;;;4933185;29;20108;-61
2021/12/10 02:36:12;;;;;;;80.18;35.83;;;3.40;97.60;;;;;;4933030;29;20050;-61
2021/12/10 02:38:45;;;;;;;78.82;37.55;;;3.40;97.60;;;;;;4923879;29;20452;-61
2021/12/10 02:41:12;;;;;;;77.95;35.90;;;3.40;97.60;;;;;;4929300;29;20036;-61
2021/12/10 02:43:38;;;;;;;82.53;37.78;;;3.40;97.60;;;;;;4928197;29;20084;-61
2021/12/10 02:46:05;;;;;;;76.22;36.58;;;3.50;97.60;;;;;;4923528;29;20375;-61
2021/12/10 02:48:31;;;;;;;85.03;39.08;;;3.50;97.60;;;;;;4936602;29;20036;-61
2021/12/10 02:50:58;;;;;;;80.90;37.97;;;3.50;97.60;;;;;;4936798;29;20042;-61
2021/12/10 02:53:28;;;;;;;80.10;37.85;;;3.40;97.60;;;;;;4936208;29;20042;-61
2021/12/10 02:55:55;;;;;;;76.95;37.33;;;3.50;97.60;;;;;;4936530;29;20032;-61
2021/12/10 02:58:20;;;;;;;82.28;38.30;;;3.50;97.60;;;;;;4937118;29;20395;-61
2021/12/10 03:01:08;;;;;;;82.45;36.20;;;3.50;97.60;;;;;;4936463;29;20034;-61
2021/12/10 03:03:36;;;;;;;76.68;35.42;;;3.50;97.50;;;;;;4936895;29;20063;-61
2021/12/10 03:06:08;;;;;;;77.85;36.10;;;3.50;97.50;;;;;;4936409;29;20036;-61
2021/12/10 03:08:34;;;;;;;79.13;37.05;;;3.40;97.50;;;;;;4937029;29;20035;-61
2021/12/10 03:11:00;;;;;;;87.60;40.55;;;3.40;97.50;;;;;;4935714;29;20455;-61
2021/12/10 03:13:25;;;;;;;72.95;34.05;;;3.40;97.50;;;;;;4937199;29;20114;-61
2021/12/10 03:15:52;;;;;;;83.95;38.50;;;3.40;97.50;;;;;;4936155;29;20065;-61
2021/12/10 03:18:18;;;;;;;85.38;40.65;;;3.30;97.50;;;;;;4936220;29;20059;-61
2021/12/10 03:20:44;;;;;;;79.97;38.70;;;3.40;97.50;;;;;;4935929;29;20032;-61
2021/12/10 03:23:11;;;;;;;90.57;41.20;;;3.40;97.60;;;;;;4936546;29;20075;-61
2021/12/10 03:25:37;;;;;;;81.20;38.47;;;3.30;97.50;;;;;;4935771;29;20039;-60
2021/12/10 03:28:04;;;;;;;85.75;38.80;;;3.30;97.60;;;;;;4936614;29;20032;-60
2021/12/10 03:30:34;;;;;;;89.47;38.65;;;3.40;97.60;;;;;;4936063;29;20050;-61
2021/12/10 03:33:00;;;;;;;85.57;37.42;;;3.30;97.60;;;;;;4950707;29;20036;-60
2021/12/10 03:35:32;;;;;;;88.10;39.00;;;3.30;97.60;;;;;;4935372;29;20506;-61
2021/12/10 03:38:01;;;;;;;87.30;40.70;;;3.30;97.60;;;;;;4936306;29;20052;-61
2021/12/10 03:40:27;;;;;;;87.63;37.75;;;3.30;97.60;;;;;;4936207;29;20078;-61
2021/12/10 03:42:58;;;;;;;86.70;39.20;;;3.30;97.60;;;;;;4936162;29;20614;-61
2021/12/10 03:45:31;;;;;;;84.90;36.92;;;3.30;97.60;;;;;;4935065;29;20484;-61
2021/12/10 03:47:58;;;;;;;90.95;40.33;;;3.30;97.60;;;;;;4936177;29;20082;-61
2021/12/10 03:50:29;;;;;;;85.72;39.17;;;3.30;97.60;;;;;;4935293;29;20475;-61
2021/12/10 03:52:55;;;;;;;91.63;40.83;;;3.30;97.60;;;;;;4942876;28;20047;-61
2021/12/10 03:55:22;;;;;;;88.70;38.45;;;3.30;97.60;;;;;;4950731;28;20036;-61
2021/12/10 03:57:49;;;;;;;86.68;39.72;;;3.30;97.60;;;;;;4935975;29;20054;-61
2021/12/10 04:00:17;;;;;;;86.75;40.58;;;3.30;97.60;;;;;;4935230;29;20563;-61
2021/12/10 04:02:43;;;;;;;91.43;40.15;;;3.30;97.60;;;;;;4935699;29;20047;-61
2021/12/10 04:05:08;;;;;;;89.90;41.90;;;3.20;97.60;;;;;;4935338;29;20027;-61
2021/12/10 04:07:34;;;;;;;90.53;41.50;;;3.20;97.70;;;;;;4935679;29;20530;-61
2021/12/10 04:10:00;;;;;;;95.20;40.10;;;3.20;97.70;;;;;;4935780;29;20035;-61
2021/12/10 04:12:25;;;;;;;92.47;40.33;;;3.20;97.70;;;;;;4934550;29;20059;-61
2021/12/10 04:14:52;;;;;;;92.38;40.40;;;3.20;97.70;;;;;;4935596;29;20139;-61
2021/12/10 04:17:20;;;;;;;85.97;38.33;;;3.10;97.70;;;;;;4934823;29;20051;-61
2021/12/10 04:19:48;;;;;;;84.93;39.42;;;3.10;97.80;;;;;;4935973;29;20039;-61
2021/12/10 04:22:14;;;;;;;89.93;39.58;;;3.10;97.80;;;;;;4935514;29;20044;-61
2021/12/10 04:24:41;;;;;;;86.65;37.95;;;3.10;97.80;;;;;;4949976;28;20035;-61
2021/12/10 04:27:10;;;;;;;91.07;39.88;;;3.10;97.80;;;;;;4934703;29;20106;-61
2021/12/10 04:29:36;;;;;;;81.97;39.05;;;3.10;97.90;;;;;;4935334;28;20053;-61
2021/12/10 04:32:04;;;;;;;91.78;40.08;;;3.10;97.90;;;;;;4934357;29;20510;-61
2021/12/10 04:34:30;;;;;;;89.55;42.40;;;3.10;97.90;;;;;;4935352;29;20054;-61
2021/12/10 04:36:58;;;;;;;91.28;39.72;;;3.10;97.90;;;;;;4934589;29;20399;-61
2021/12/10 04:39:24;;;;;;;88.70;41.67;;;3.10;97.90;;;;;;4935238;28;20038;-61
2021/12/10 04:41:50;;;;;;;92.60;42.33;;;3.10;97.90;;;;;;4934218;29;20403;-61
2021/12/10 04:44:15;;;;;;;91.63;40.53;;;3.20;98.00;;;;;;4934789;29;20083;-61
2021/12/10 04:46:41;;;;;;;91.18;40.22;;;3.10;97.90;;;;;;4936824;29;20099;-61
2021/12/10 04:49:12;;;;;;;89.35;40.42;;;3.10;97.90;;;;;;4935535;29;20062;-61
2021/12/10 04:51:40;;;;;;;86.38;39.83;;;3.20;98.00;;;;;;4934237;29;20052;-62
2021/12/10 04:54:08;;;;;;;86.78;39.22;;;3.20;98.00;;;;;;4935282;29;20534;-62
2021/12/10 04:56:34;;;;;;;86.68;40.70;;;3.20;98.10;;;;;;4934041;29;20399;-61
2021/12/10 04:59:02;;;;;;;86.57;39.47;;;3.20;98.10;;;;;;4934633;29;20098;-62
2021/12/10 05:01:28;;;;;;;91.78;39.95;;;3.20;98.10;;;;;;4934024;29;20027;-62
2021/12/10 05:03:54;;;;;;;87.68;39.58;;;3.20;98.00;;;;;;4934566;29;20036;-62
2021/12/10 05:06:19;;;;;;;91.43;38.47;;;3.20;98.00;;;;;;4934266;29;20123;-62
2021/12/10 05:08:45;;;;;;;90.78;39.53;;;3.20;98.20;;;;;;4933985;29;20031;-62
2021/12/10 05:11:12;;;;;;;85.75;39.40;;;3.20;98.00;;;;;;4940589;29;20035;-62
2021/12/10 05:13:41;;;;;;;87.20;41.22;;;3.20;98.00;;;;;;4953478;28;20023;-62
2021/12/10 05:16:07;;;;;;;92.95;38.50;;;3.20;98.10;;;;;;4937034;28;20032;-61
2021/12/10 05:18:37;;;;;;;84.05;39.05;;;3.20;98.10;;;;;;4934738;29;20042;-62
2021/12/10 05:21:05;;;;;;;86.93;39.58;;;3.30;98.10;;;;;;4932210;29;20035;-62
2021/12/10 05:23:32;;;;;;;79.35;39.25;;;3.20;98.10;;;;;;4934447;29;20043;-62
2021/12/10 05:25:58;;;;;;;90.32;40.97;;;3.30;98.10;;;;;;4948133;28;20046;-62
2021/12/10 05:28:23;;;;;;;84.45;38.78;;;3.20;98.10;;;;;;4934189;29;20115;-61
2021/12/10 05:30:54;;;;;;;90.90;40.65;;;3.20;98.10;;;;;;4934146;29;20111;-61
2021/12/10 05:33:19;;;;;;;90.70;40.70;;;3.20;98.10;;;;;;4934333;29;20043;-61
2021/12/10 05:35:47;;;;;;;94.97;40.33;;;3.20;98.10;;;;;;4933764;29;20102;-61
2021/12/10 05:38:14;;;;;;;92.50;43.20;;;3.20;98.10;;;;;;4933340;29;20071;-61
2021/12/10 05:40:40;;;;;;;85.68;38.85;;;3.20;98.10;;;;;;4933208;29;20028;-61
2021/12/10 05:43:06;;;;;;;86.80;40.05;;;3.20;98.10;;;;;;4934322;29;20030;-61
2021/12/10 05:45:31;;;;;;;97.45;40.63;;;3.20;98.10;;;;;;4948086;28;20035;-61
2021/12/10 05:47:58;;;;;;;91.32;41.20;;;3.20;98.10;;;;;;4934176;29;20027;-61
2021/12/10 05:50:26;;;;;;;93.03;41.80;;;3.30;98.20;;;;;;4933692;29;20031;-61
2021/12/10 05:52:52;;;;;;;84.43;38.70;;;3.30;98.20;;;;;;4933964;29;20062;-61
2021/12/10 05:55:19;;;;;;;86.15;40.47;;;3.30;98.20;;;;;;4932895;29;20040;-61
2021/12/10 05:57:45;;;;;;;87.78;39.42;;;3.30;98.20;;;;;;4934134;29;20111;-61
2021/12/10 06:00:21;;;;;;;93.25;42.08;;;3.30;98.20;;;;;;4933425;29;20044;-61
2021/12/10 06:02:46;;;;;;;92.15;41.10;;;3.30;98.20;;;;;;4933531;29;20039;-61
2021/12/10 06:05:12;;;;;;;90.25;39.75;;;3.30;98.20;;;;;;4932940;29;20027;-62
2021/12/10 06:07:38;;;;;;;96.28;41.38;;;3.30;98.30;;;;;;4933509;28;20044;-62
2021/12/10 06:10:07;;;;;;;91.97;42.00;;;3.30;98.30;;;;;;4933953;29;20043;-61
2021/12/10 06:12:32;;;;;;;98.75;43.75;;;3.30;98.30;;;;;;4932481;29;20031;-61
2021/12/10 06:14:58;;;;;;;104.63;43.75;;;3.30;98.30;;;;;;4933861;29;20381;-62
2021/12/10 06:17:24;;;;;;;98.68;44.70;;;3.40;98.40;;;;;;4931555;29;20232;-61
2021/12/10 06:19:49;;;;;;;101.95;43.30;;;3.30;98.40;;;;;;4933462;29;20138;-61
2021/12/10 06:22:15;;;;;;;106.30;45.20;;;3.30;98.40;;;;;;4933584;29;20608;-61
2021/12/10 06:24:40;;;;;;;100.63;43.53;;;3.30;98.40;;;;;;4937148;29;20644;-61
2021/12/10 06:27:06;;;;;;;91.22;42.15;;;3.30;98.40;;;;;;4937544;29;20047;-61
2021/12/10 06:29:31;;;;;;;97.97;44.40;;;3.30;98.40;;;;;;4936502;29;20479;-61
2021/12/10 06:31:57;;;;;;;92.47;41.22;;;3.30;98.40;;;;;;4927653;29;20028;-61
2021/12/10 06:34:23;;;;;;;99.68;43.90;;;3.30;98.40;;;;;;4918546;29;20035;-62
2021/12/10 06:36:49;;;;;;;91.85;41.38;;;3.30;98.40;;;;;;4932527;29;20043;-62
2021/12/10 06:39:20;;;;;;;97.63;44.92;;;3.30;98.40;;;;;;4937031;29;20460;-62
2021/12/10 06:41:53;;;;;;;93.40;43.47;;;3.30;98.40;;;;;;4938130;29;20028;-62
2021/12/10 06:44:19;;;;;;;97.93;44.33;;;3.30;98.50;;;;;;4942205;29;20511;-62
2021/12/10 06:46:45;;;;;;;100.68;42.42;;;3.30;98.40;;;;;;4939816;29;20639;-62
2021/12/10 06:49:12;;;;;;;92.15;41.35;;;3.30;98.40;;;;;;4933980;29;20032;-62
2021/12/10 06:51:38;;;;;;;96.75;42.00;;;3.30;98.40;;;;;;4937028;29;20047;-62
2021/12/10 06:54:03;;;;;;;109.53;45.22;;;3.30;98.40;;;;;;4937622;29;20042;-62
2021/12/10 06:56:31;;;;;;;104.13;44.42;;;3.30;98.30;;;;;;4937108;29;20032;-62
2021/12/10 06:58:56;;;;;;;100.65;43.17;;;3.30;98.40;;;;;;4948196;28;20479;-61
2021/12/10 07:01:26;;;;;;;96.88;42.67;;;3.30;98.40;;;;;;4936656;29;20083;-62
2021/12/10 07:03:53;;;;;;;91.22;41.50;;;3.30;98.40;;;;;;4936166;29;20038;-62
2021/12/10 07:06:19;;;;;;;100.72;42.58;;;3.20;98.40;;;;;;4936101;29;20040;-62
2021/12/10 07:08:46;;;;;;;96.40;45.50;;;3.30;98.50;;;;;;4937046;29;20031;-61
2021/12/10 07:11:15;;;;;;;98.55;44.50;;;3.20;98.40;;;;;;4936530;29;20035;-61
2021/12/10 07:13:43;;;;;;;91.38;41.13;;;3.20;98.50;;;;;;4936540;29;20364;-61
2021/12/10 07:16:09;;;;;;;103.22;44.42;;;3.20;98.50;;;;;;4936359;29;20027;-61
2021/12/10 07:18:36;;;;;;;100.45;43.05;;;3.30;98.50;;;;;;4936668;29;20036;-62
2021/12/10 07:21:01;;;;;;;88.78;41.47;;;3.30;98.50;;;;;;4936317;29;20056;-61
2021/12/10 07:23:27;;;;;;;101.90;45.15;;;3.30;98.60;;;;;;4935280;29;20047;-62
2021/12/10 07:25:53;;;;;;;107.45;44.47;;;3.30;98.60;;;;;;4936322;29;20087;-61
2021/12/10 07:28:18;;;;;;;97.03;43.03;;;3.30;98.60;;;;;;4936753;29;20027;-61
2021/12/10 07:30:45;;;;;;;93.20;41.13;;;3.30;98.60;;;;;;4935858;29;20028;-62
2021/12/10 07:33:11;;;;;;;101.47;43.90;;;3.30;98.60;;;;;;4935169;29;20567;-62
2021/12/10 07:35:37;;;;;;;99.85;45.97;;;3.30;98.60;;;;;;4935670;29;20024;-61
2021/12/10 07:38:04;;;;;;;102.78;44.15;;;3.30;98.60;;;;;;4935154;29;20102;-62
2021/12/10 07:40:32;;;;;;;100.57;42.33;;;3.30;98.70;;;;;;4947431;28;20063;-61
2021/12/10 07:42:57;;;;;;;99.15;43.65;;;3.30;98.70;;;;;;4940489;29;20043;-62
2021/12/10 07:45:24;;;;;;;97.75;43.85;;;3.30;98.60;;;;;;4932354;29;20103;-61
2021/12/10 07:47:53;;;;;;;97.18;42.95;;;3.40;98.60;;;;;;4933656;29;20040;-62
2021/12/10 07:50:24;;;;;;;90.93;42.80;;;3.40;98.60;;;;;;4934314;29;20137;-62
2021/12/10 07:52:55;;;;;;;95.95;46.72;;;3.40;98.70;;;;;;4939216;29;20048;-62
2021/12/10 07:55:23;;;;;;;95.43;42.67;;;3.40;98.70;;;;;;4934147;29;20035;-62
2021/12/10 07:57:51;;;;;;;96.72;43.03;;;3.40;98.70;;;;;;4934460;29;20542;-62
2021/12/10 08:00:18;;;;;;;91.85;43.72;;;3.40;98.70;;;;;;4933865;29;20070;-62
2021/12/10 08:02:44;;;;;;;94.18;42.65;;;3.40;98.70;;;;;;4933798;28;20063;-63
2021/12/10 08:05:13;;;;;;;97.20;43.78;;;3.40;98.70;;;;;;4937218;29;20024;-62
2021/12/10 08:07:39;;;;;;;87.30;42.33;;;3.40;98.70;;;;;;4933437;29;20035;-63
2021/12/10 08:10:08;;;;;;;95.68;42.83;;;3.50;98.70;;;;;;4932733;29;20547;-63
2021/12/10 08:12:33;;;;;;;89.60;41.53;;;3.40;98.70;;;;;;4934062;28;20042;-63
2021/12/10 08:14:59;;;;;;;100.57;45.75;;;3.40;98.60;;;;;;4934473;29;20106;-62
2021/12/10 08:17:25;;;;;;;104.45;45.05;;;3.50;98.60;;;;;;4933845;29;20042;-62
2021/12/10 08:19:51;;;;;;;93.20;42.63;;;3.40;98.60;;;;;;4934484;29;20020;-62
2021/12/10 08:22:17;;;;;;;99.88;43.30;;;3.50;98.60;;;;;;4933624;29;20517;-62
2021/12/10 08:24:43;;;;;;;87.32;41.40;;;3.50;98.60;;;;;;4941858;28;20050;-63
2021/12/10 08:27:27;;;;;;;92.30;43.13;;;3.50;98.60;;;;;;4933394;29;20034;-63
2021/12/10 08:29:53;;;;;;;93.43;43.63;;;3.50;98.60;;;;;;4934655;29;20032;-61
2021/12/10 08:32:21;;;;;;;91.38;41.50;;;3.50;98.60;;;;;;4933808;29;20031;-62
2021/12/10 08:34:48;;;;;;;96.25;41.47;;;3.50;98.60;;;;;;4937117;29;20111;-62
2021/12/10 08:37:14;;;;;;;93.78;44.25;;;3.60;98.60;;;;;;4931498;29;20396;-62
2021/12/10 08:39:40;;;;;;;106.80;46.80;;;3.60;98.80;;;;;;4933339;29;20046;-62
2021/12/10 08:42:06;;;;;;;93.63;44.00;;;3.60;98.60;;;;;;4933980;29;20032;-62
2021/12/10 08:44:33;;;;;;;95.28;43.92;;;3.60;98.60;;;;;;4933487;29;20395;-62
2021/12/10 08:46:59;;;;;;;95.85;42.17;;;3.60;98.60;;;;;;4934123;29;20038;-62
2021/12/10 08:49:27;;;;;;;97.10;43.22;;;3.60;98.60;;;;;;4933764;29;20050;-63
2021/12/10 08:51:56;;;;;;;102.63;46.03;;;3.60;98.70;;;;;;4938980;29;20069;-62
2021/12/10 08:54:26;;;;;;;93.65;43.75;;;3.70;98.80;;;;;;4933986;29;20514;-63
2021/12/10 08:56:52;;;;;;;86.50;41.42;;;3.70;98.80;;;;;;4933314;29;20047;-63
2021/12/10 08:59:21;;;;;;;84.93;37.50;;;3.70;98.80;;;;;;4934038;29;20024;-63
2021/12/10 09:01:50;;;;;;;91.00;40.92;;;3.80;98.80;;;;;;4943384;28;20042;-63
2021/12/10 09:04:16;;;;;;;88.80;42.53;;;3.80;98.80;;;;;;4934178;29;20031;-63
2021/12/10 09:06:48;;;;;;;91.68;41.72;;;3.80;98.80;;;;;;4932258;29;20063;-62
2021/12/10 09:09:15;;;;;;;86.80;39.50;;;3.80;98.80;;;;;;4933828;29;20047;-63
2021/12/10 09:11:46;;;;;;;91.38;42.10;;;3.80;98.70;;;;;;4943008;28;20036;-63
2021/12/10 09:14:11;;;;;;;94.22;41.63;;;3.90;98.70;;;;;;4933058;29;20035;-63
2021/12/10 09:16:37;;;;;;;92.53;42.78;;;3.90;98.60;;;;;;4932540;29;20042;-63
2021/12/10 09:19:07;;;;;;;84.15;41.63;;;3.90;98.50;;;;;;4932712;29;20423;-62
2021/12/10 09:21:35;;;;;;;91.50;42.38;;;3.80;98.50;;;;;;4932446;29;20031;-63
2021/12/10 09:24:04;;;;;;;86.80;41.55;;;3.90;98.50;;;;;;4933068;29;20042;-63
2021/12/10 09:26:36;;;;;;;88.45;41.33;;;3.90;98.50;;;;;;4932648;28;20035;-63
2021/12/10 09:29:05;;;;;;;93.82;41.88;;;3.90;98.50;;;;;;4933360;29;20158;-63
2021/12/10 09:31:31;;;;;;;91.03;39.72;;;3.90;98.50;;;;;;4939257;29;20122;-62
2021/12/10 09:33:58;;;;;;;88.10;39.03;;;3.90;98.50;;;;;;4932867;29;20071;-63
2021/12/10 09:36:26;;;;;;;92.93;39.75;;;3.90;98.40;;;;;;4931488;29;20031;-63
2021/12/10 09:38:52;;;;;;;90.47;39.40;;;3.90;98.40;;;;;;4938342;29;20119;-63
2021/12/10 09:41:20;;;;;;;91.03;42.83;;;3.90;98.40;;;;;;4934697;28;20024;-63
2021/12/10 09:43:46;;;;;;;86.72;40.80;;;3.90;98.30;;;;;;4932989;29;20040;-63
2021/12/10 09:46:12;;;;;;;93.57;40.42;;;3.90;98.30;;;;;;4932350;29;20054;-64
2021/12/10 09:48:40;;;;;;;88.22;39.95;;;3.90;98.30;;;;;;4934891;29;20038;-63
2021/12/10 09:51:19;;;;;;;87.25;37.63;;;3.90;98.20;;;;;;4932625;28;20444;-64
2021/12/10 09:53:48;;;;;;;96.28;41.97;;;3.90;98.30;;;;;;4932279;29;20041;-64
2021/12/10 09:56:17;;;;;;;86.07;39.55;;;4.00;98.30;;;;;;4932691;28;20028;-64
2021/12/10 09:58:46;;;;;;;87.13;38.67;;;4.00;98.40;;;;;;4934625;29;20102;-64
2021/12/10 10:01:21;;;;;;;90.70;41.40;;;4.00;98.40;;;;;;4929050;29;20472;-65
2021/12/10 10:03:48;;;;;;;;;;;4.10;98.40;;;;;;4933644;29;20040;-65
2021/12/10 10:06:16;;;;;;;83.75;38.42;;;4.10;98.40;;;;;;4932343;29;20274;-64
2021/12/10 10:08:45;;;;;;;84.00;38.17;;;4.20;98.40;;;;;;4926353;29;20036;-64
2021/12/10 10:11:15;;;;;;;82.10;41.58;;;4.20;98.40;;;;;;4931882;29;20127;-64
2021/12/10 10:13:44;;;;;;;86.85;39.05;;;4.20;98.40;;;;;;4939952;28;20035;-64
2021/12/10 10:16:11;;;;;;;83.30;40.00;;;4.20;98.40;;;;;;4932158;29;20032;-65
2021/12/10 10:18:39;;;;;;;88.75;41.25;;;4.30;98.30;;;;;;4932784;29;20119;-64
2021/12/10 10:21:09;;;;;;;86.13;38.53;;;4.30;98.30;;;;;;4932212;29;20098;-64
2021/12/10 10:23:41;;;;;;;89.80;41.88;;;4.30;98.30;;;;;;4933079;29;20123;-64
2021/12/10 10:26:11;;;;;;;82.93;40.50;;;4.30;98.30;;;;;;4932777;29;20091;-65
2021/12/10 10:28:40;;;;;;;81.50;38.25;;;4.40;98.30;;;;;;4935328;29;20067;-65
2021/12/10 10:31:12;;;;;;;79.85;38.78;;;4.40;98.30;;;;;;4938093;29;20038;-64
2021/12/10 10:33:40;;;;;;;83.13;38.35;;;4.40;98.30;;;;;;4937846;29;20079;-64
2021/12/10 10:36:17;;;;;;;84.47;38.97;;;4.50;98.30;;;;;;4941317;28;20038;-64
2021/12/10 10:38:47;;;;;;;75.72;36.53;;;4.50;98.30;;;;;;4931765;29;20376;-63
2021/12/10 10:41:15;;;;;;;83.30;38.78;;;4.60;98.20;;;;;;4931221;29;20044;-63
2021/12/10 10:43:40;;;;;;;75.88;35.85;;;4.60;98.10;;;;;;4929584;29;20083;-63
2021/12/10 10:46:06;;;;;;;89.88;40.08;;;4.70;98.10;;;;;;4937201;29;20028;-63
2021/12/10 10:48:32;;;;;;;81.50;38.45;;;4.60;98.10;;;;;;4934915;28;20085;-63
2021/12/10 10:51:25;;;;;;;79.30;37.55;;;4.60;98.00;;;;;;4936245;29;20460;-63
2021/12/10 10:53:53;;;;;;;80.05;38.50;;;4.60;98.00;;;;;;4927552;29;20066;-63
2021/12/10 10:56:32;;;;;;;80.93;38.63;;;4.60;98.00;;;;;;4931523;29;20508;-61
2021/12/10 10:59:09;;;;;;;82.28;38.47;;;4.70;98.00;;;;;;4932241;29;20119;-64
2021/12/10 11:01:41;;;;;;;73.40;35.25;;;4.60;98.00;;;;;;4931612;29;20694;-65
2021/12/10 11:04:18;;;;;;;74.80;35.35;;;4.60;98.00;;;;;;4932365;29;20028;-65
2021/12/10 11:07:04;;;;;;;79.43;35.53;;;4.60;98.00;;;;;;4931570;29;20027;-64
2021/12/10 11:09:32;;;;;;;70.30;34.03;;;4.60;98.00;;;;;;4929985;29;20496;-64
2021/12/10 11:12:07;;;;;;;77.07;34.53;;;4.60;98.00;;;;;;4935902;29;20036;-65
2021/12/10 11:14:39;;;;;;;75.72;35.88;;;4.60;98.00;;;;;;4936330;29;20028;-64
2021/12/10 11:17:14;;;;;;;72.25;33.47;;;4.60;98.00;;;;;;4936874;29;20039;-65
2021/12/10 11:19:47;;;;;;;72.18;33.85;;;4.70;98.00;;;;;;4936029;29;20428;-63
2021/12/10 11:22:15;;;;;;;63.90;31.95;;;4.70;98.00;;;;;;4951349;28;20051;-64
2021/12/10 11:24:46;;;;;;;64.07;30.65;;;4.70;98.00;;;;;;4936277;29;20106;-63
2021/12/10 11:27:24;;;;;;;65.93;31.95;;;4.70;98.00;;;;;;4951437;29;20166;-63
2021/12/10 11:29:55;;;;;;;64.80;31.00;;;4.70;98.00;;;;;;4950824;29;20142;-63
2021/12/10 11:32:35;;;;;;;75.15;34.83;;;4.60;98.00;;;;;;4934176;29;20278;-63
2021/12/10 11:35:18;;;;;;;68.28;33.75;;;4.60;98.00;;;;;;4934214;29;20036;-63
2021/12/10 11:38:01;;;;;;;70.60;33.22;;;4.70;98.00;;;;;;4936263;29;20053;-63
2021/12/10 11:40:38;;;;;;;75.40;35.50;;;4.70;98.00;;;;;;4936369;29;20142;-63
2021/12/10 11:43:33;;;;;;;77.82;33.58;;;4.70;98.00;;;;;;4936171;29;20027;-64
2021/12/10 11:48:54;;;;;;;71.68;31.73;;;4.70;98.00;;;;;;4935842;29;20040;-64
2021/12/10 11:51:28;;;;;;;72.40;34.75;;;4.70;98.00;;;;;;4950731;29;20134;-63
2021/12/10 11:54:01;;;;;;;80.45;35.58;;;4.60;98.00;;;;;;4934788;29;20491;-64
2021/12/10 11:56:35;;;;;;;78.45;36.08;;;4.70;98.00;;;;;;4934524;29;20043;-64
2021/12/10 11:59:05;;;;;;;75.95;34.70;;;4.70;98.00;;;;;;4935899;29;20095;-65
2021/12/10 12:01:43;;;;;;;76.93;35.10;;;4.70;98.00;;;;;;4933151;29;20122;-63
2021/12/10 12:04:31;;;;;;;82.85;36.70;;;4.70;98.00;;;;;;4925463;29;20035;-63
2021/12/10 12:07:35;;;;;;;75.93;34.42;;;4.70;98.00;;;;;;4934576;29;20031;-64
2021/12/10 12:10:12;;;;;;;86.55;36.33;;;4.70;97.90;;;;;;4928562;29;20028;-63
2021/12/10 12:12:50;;;;;;;79.18;37.58;;;4.70;97.90;;;;;;4936334;29;20032;-63
2021/12/10 12:15:34;;;;;;;78.80;35.60;;;4.70;97.90;;;;;;4935903;29;20118;-63
2021/12/10 12:18:14;;;;;;;79.18;35.33;;;4.70;97.90;;;;;;4935700;29;20032;-64
2021/12/10 12:20:52;;;;;;;83.15;34.95;;;4.70;97.90;;;;;;4934574;29;20035;-64
2021/12/10 12:26:27;;;;;;;77.80;35.05;;;4.60;98.10;;;;;;4930271;29;20475;-63
2021/12/10 12:28:56;;;;;;;88.30;37.55;;;4.60;98.00;;;;;;4950671;29;20120;-63
2021/12/10 12:31:31;;;;;;;87.88;37.33;;;4.60;98.00;;;;;;4935508;28;20040;-64
2021/12/10 12:34:10;;;;;;;84.25;36.30;;;4.60;98.00;;;;;;4933385;29;20039;-63
2021/12/10 12:36:41;;;;;;;85.50;38.38;;;4.70;98.00;;;;;;4933437;29;20070;-64
2021/12/10 12:39:14;;;;;;;88.43;36.38;;;4.60;98.00;;;;;;4933309;29;20050;-64
2021/12/10 12:41:47;;;;;;;78.18;33.35;;;4.70;98.00;;;;;;4932554;29;20035;-64
2021/12/10 12:44:24;;;;;;;76.60;34.53;;;4.60;98.00;;;;;;4932714;29;20035;-64
2021/12/10 12:46:55;;;;;;;86.05;36.45;;;4.70;98.10;;;;;;4934150;29;20042;-65
2021/12/10 12:49:21;;;;;;;75.15;35.58;;;4.70;98.10;;;;;;4932891;29;20214;-64
2021/12/10 12:52:10;;;;;;;72.88;33.58;;;4.70;98.10;;;;;;4931395;29;20231;-65
2021/12/10 12:54:59;;;;;;;79.20;34.92;;;4.70;98.20;;;;;;4933681;28;20039;-65
2021/12/10 12:57:36;;;;;;;74.88;34.00;;;4.70;98.10;;;;;;4932657;29;20074;-64